Time;durP1;ratioP1;P1;durP2;ratioP2;P2;SDS_P1;SDS_P2;PMS_P1;PMS_P2;Temp;Humidity;BMP_temperature;BMP_pressure;BME280_temperature;BME280_humidity;BME280_pressure;Samples;Min_cycle;Max_cycle;Signal;HPM_P1;HPM_P2
2021/07/17 00:02:25;;;;;;;19.83;15.35;;;;;;;19.96;90.32;96601.70;127860;1093;23386;-92
2021/07/17 00:04:56;;;;;;;18.53;15.23;;;;;;;20.04;90.60;96589.27;127838;1093;26600;-94
2021/07/17 00:07:27;;;;;;;19.40;15.13;;;;;;;20.13;90.51;96601.48;127834;1093;24883;-92
2021/07/17 00:09:58;;;;;;;21.87;15.13;;;;;;;20.19;90.47;96601.23;127839;1093;26758;-91
2021/07/17 00:12:30;;;;;;;21.55;16.30;;;;;;;20.25;90.76;96602.55;127808;1093;26701;-91
2021/07/17 00:15:01;;;;;;;18.08;16.13;;;;;;;20.32;90.38;96589.31;127849;1093;23277;-96
2021/07/17 00:17:33;;;;;;;21.85;16.18;;;;;;;20.34;90.24;96573.59;127898;1093;23815;-93
2021/07/17 00:20:06;;;;;;;27.83;17.40;;;;;;;20.29;90.35;96571.94;127861;1093;22770;-91
2021/07/17 00:22:37;;;;;;;20.15;16.30;;;;;;;20.22;90.15;96562.86;127857;1093;22813;-92
2021/07/17 00:25:13;;;;;;;21.45;16.45;;;;;;;20.13;90.36;96571.88;127829;1093;22944;-90
2021/07/17 00:27:45;;;;;;;21.18;15.43;;;;;;;20.07;89.90;96570.52;127916;1093;26426;-93
2021/07/17 00:30:19;;;;;;;19.45;16.98;;;;;;;19.94;89.79;96576.27;127891;1093;24399;-92
2021/07/17 00:32:51;;;;;;;20.33;16.43;;;;;;;19.90;90.34;96586.15;127866;1093;22761;-91
2021/07/17 00:35:23;;;;;;;21.77;15.50;;;;;;;19.91;90.60;96583.11;127863;1093;23388;-90
2021/07/17 00:37:54;;;;;;;18.28;15.53;;;;;;;19.96;90.89;96579.40;127882;1092;24265;-94
2021/07/17 00:40:26;;;;;;;18.80;14.53;;;;;;;20.05;90.97;96578.16;127832;1093;23289;-92
2021/07/17 00:42:57;;;;;;;20.03;15.23;;;;;;;20.14;90.84;96581.52;127848;1093;24444;-91
2021/07/17 00:45:29;;;;;;;24.98;17.03;;;;;;;20.18;91.19;96581.61;127880;1093;22792;-94
2021/07/17 00:48:00;;;;;;;21.13;16.58;;;;;;;20.23;90.80;96583.27;127840;1093;31673;-92
2021/07/17 00:50:32;;;;;;;20.95;15.90;;;;;;;20.29;90.84;96587.30;127848;1093;25899;-94
2021/07/17 00:53:03;;;;;;;21.23;17.23;;;;;;;20.34;91.31;96574.38;127868;1093;22816;-92
2021/07/17 00:55:39;;;;;;;23.13;16.63;;;;;;;20.37;91.27;96575.59;127851;1093;23544;-94
2021/07/17 00:58:12;;;;;;;20.25;16.83;;;;;;;20.36;91.28;96582.11;127863;1092;22789;-91
2021/07/17 01:00:44;;;;;;;24.55;17.58;;;;;;;20.35;91.52;96584.02;127915;1092;23425;-93
2021/07/17 01:03:18;;;;;;;23.08;18.03;;;;;;;20.42;91.72;96586.17;127923;1093;23213;-93
2021/07/17 01:05:51;;;;;;;20.43;15.48;;;;;;;20.52;91.83;96577.59;127852;1093;26056;-91
2021/07/17 01:08:22;;;;;;;21.85;16.60;;;;;;;20.59;91.60;96580.49;127807;1093;27314;-91
2021/07/17 01:10:54;;;;;;;18.43;15.38;;;;;;;20.59;91.44;96585.09;127823;1093;22796;-90
2021/07/17 01:13:25;;;;;;;20.38;15.43;;;;;;;20.53;91.20;96599.91;127850;1093;24441;-94
2021/07/17 01:15:57;;;;;;;19.73;15.25;;;;;;;20.43;90.95;96595.82;127898;1093;26801;-91
2021/07/17 01:18:30;;;;;;;17.45;14.80;;;;;;;20.46;91.52;96597.82;127831;1092;23675;-91
2021/07/17 01:21:03;;;;;;;20.60;16.10;;;;;;;20.53;91.67;96595.31;127863;1093;23252;-90
2021/07/17 01:23:34;;;;;;;19.38;16.73;;;;;;;20.50;91.66;96581.75;127877;1093;22951;-90
2021/07/17 01:26:06;;;;;;;22.65;16.53;;;;;;;20.44;92.09;96573.93;127868;1093;23090;-90
2021/07/17 01:28:40;;;;;;;20.20;16.73;;;;;;;20.44;92.24;96573.93;127852;1093;22897;-93
2021/07/17 01:31:11;;;;;;;19.40;15.83;;;;;;;20.47;92.45;96569.77;127839;1093;23648;-90
2021/07/17 01:33:47;;;;;;;19.60;15.33;;;;;;;20.46;91.94;96584.36;127914;1093;27140;-91
2021/07/17 01:36:20;;;;;;;21.23;15.88;;;;;;;20.28;91.59;96599.98;127844;1093;26426;-90
2021/07/17 01:38:51;;;;;;;18.80;15.48;;;;;;;20.23;92.29;96585.95;127840;1093;24126;-91
2021/07/17 01:41:23;;;;;;;19.70;16.25;;;;;;;20.32;93.07;96576.63;127863;1093;22861;-94
2021/07/17 01:43:55;;;;;;;20.18;15.28;;;;;;;20.44;93.00;96586.61;127861;1093;22820;-93
2021/07/17 01:46:27;;;;;;;17.95;15.00;;;;;;;20.52;92.81;96580.28;127851;1093;24313;-94
2021/07/17 01:49:00;;;;;;;18.90;15.83;;;;;;;20.59;92.85;96572.41;127851;1093;22851;-92
2021/07/17 01:51:31;;;;;;;21.63;17.57;;;;;;;20.55;92.77;96574.23;127854;1093;23388;-92
2021/07/17 01:54:02;;;;;;;23.83;16.38;;;;;;;20.54;92.94;96571.86;127856;1093;22822;-92
2021/07/17 01:56:35;;;;;;;20.48;16.80;;;;;;;20.55;92.94;96582.31;127870;1093;26521;-91
2021/07/17 01:59:06;;;;;;;20.60;15.95;;;;;;;20.59;93.10;96580.49;127882;1093;24146;-93
2021/07/17 02:01:37;;;;;;;18.23;15.63;;;;;;;20.66;92.86;96580.67;127848;1093;23422;-93
2021/07/17 02:04:09;;;;;;;18.85;16.10;;;;;;;20.68;92.87;96575.72;127860;1093;22874;-92
2021/07/17 02:06:40;;;;;;;19.58;16.28;;;;;;;20.67;92.81;96582.23;127854;1093;22806;-91
2021/07/17 02:09:11;;;;;;;19.15;15.28;;;;;;;20.72;92.67;96576.62;127840;1093;24832;-92
2021/07/17 02:11:43;;;;;;;21.13;17.08;;;;;;;20.78;92.73;96568.27;127933;1092;22798;-92
2021/07/17 02:14:14;;;;;;;18.90;15.40;;;;;;;20.78;93.38;96570.97;127906;1093;22834;-94
2021/07/17 02:16:46;;;;;;;19.73;16.30;;;;;;;20.75;92.69;96578.62;127945;1092;23326;-93
2021/07/17 02:19:22;;;;;;;20.00;16.07;;;;;;;20.72;92.81;96573.92;127842;1093;24816;-90
2021/07/17 02:21:54;;;;;;;20.15;15.85;;;;;;;20.72;92.91;96573.92;127863;1093;24352;-92
2021/07/17 02:24:25;;;;;;;19.05;15.55;;;;;;;20.65;92.67;96583.70;127874;1093;26324;-92
2021/07/17 02:26:56;;;;;;;18.15;14.45;;;;;;;20.54;92.51;96578.02;127850;1093;23055;-91
2021/07/17 02:29:28;;;;;;;19.75;16.35;;;;;;;20.56;93.15;96575.80;127882;1093;22891;-92
2021/07/17 02:31:59;;;;;;;19.33;16.15;;;;;;;20.51;93.02;96572.55;127822;1092;36558;-94
2021/07/17 02:34:30;;;;;;;19.03;16.20;;;;;;;20.44;93.39;96575.84;127852;1092;22796;-94
2021/07/17 02:37:02;;;;;;;23.70;17.83;;;;;;;20.38;93.36;96571.77;127871;1093;23226;-89
2021/07/17 02:39:33;;;;;;;23.47;16.63;;;;;;;20.30;93.86;96565.42;127831;1093;22797;-91
2021/07/17 02:42:05;;;;;;;20.20;16.33;;;;;;;20.25;94.04;96565.64;127855;1093;25903;-91
2021/07/17 02:44:36;;;;;;;22.05;17.73;;;;;;;20.20;94.61;96570.50;127866;1093;23276;-90
2021/07/17 02:47:07;;;;;;;23.40;18.73;;;;;;;20.16;94.73;96579.26;127863;1093;23041;-91
2021/07/17 02:49:39;;;;;;;23.05;17.15;;;;;;;20.18;94.86;96575.44;127871;1093;22824;-94
2021/07/17 02:52:10;;;;;;;22.53;17.30;;;;;;;20.20;94.85;96567.80;127873;1093;25458;-95
2021/07/17 02:54:41;;;;;;;22.18;18.08;;;;;;;20.21;95.22;96569.37;127827;1093;25341;-91
2021/07/17 02:57:13;;;;;;;21.88;18.75;;;;;;;20.24;95.25;96568.68;127904;1093;24470;-91
2021/07/17 02:59:44;;;;;;;21.63;15.80;;;;;;;20.30;95.28;96567.33;127911;1093;23121;-90
2021/07/17 03:02:16;;;;;;;19.53;15.53;;;;;;;20.37;94.83;96575.59;127929;1093;23350;-92
2021/07/17 03:04:47;;;;;;;19.60;15.18;;;;;;;20.41;94.50;96580.01;127922;1091;22767;-91
2021/07/17 03:07:18;;;;;;;19.18;15.63;;;;;;;20.44;94.61;96579.31;127851;1093;23140;-90
2021/07/17 03:09:50;;;;;;;18.48;15.20;;;;;;;20.42;93.85;96583.48;127863;1092;23140;-92
2021/07/17 03:12:21;;;;;;;19.20;14.60;;;;;;;20.36;93.51;96579.41;127850;1093;24151;-92
2021/07/17 03:14:52;;;;;;;18.30;14.43;;;;;;;20.29;93.45;96577.31;127837;1093;24502;-91
2021/07/17 03:17:24;;;;;;;20.95;15.88;;;;;;;20.27;93.69;96579.57;127874;1093;24499;-94
2021/07/17 03:19:55;;;;;;;17.58;14.28;;;;;;;20.31;94.07;96580.45;127843;1093;24147;-92
2021/07/17 03:22:26;;;;;;;18.33;14.83;;;;;;;20.38;94.23;96579.85;127856;1092;24227;-89
2021/07/17 03:24:57;;;;;;;18.03;15.83;;;;;;;20.37;93.84;96578.29;127854;1093;23086;-92
2021/07/17 03:27:29;;;;;;;17.23;13.38;;;;;;;20.33;93.60;96580.10;127850;1093;23584;-89
2021/07/17 03:30:00;;;;;;;17.40;14.28;;;;;;;20.39;93.52;96578.72;127836;1093;26267;-96
2021/07/17 03:32:31;;;;;;;20.68;14.70;;;;;;;20.41;93.33;96579.19;127869;1094;24430;-91
2021/07/17 03:35:03;;;;;;;17.83;13.00;;;;;;;20.43;92.78;96577.75;127881;1091;22820;-90
2021/07/17 03:37:35;;;;;;;19.95;14.40;;;;;;;20.47;92.91;96577.84;127844;1093;22830;-92
2021/07/17 03:40:09;;;;;;;15.48;13.30;;;;;;;20.54;93.00;96572.64;127853;1093;26287;-91
2021/07/17 03:42:40;;;;;;;16.08;13.13;;;;;;;20.56;92.43;96575.80;127840;1093;22843;-92
2021/07/17 03:45:13;;;;;;;20.03;13.30;;;;;;;20.55;92.30;96579.62;127846;1093;22796;-94
2021/07/17 03:47:44;;;;;;;17.35;14.13;;;;;;;20.58;92.06;96583.53;127924;1093;22848;-90
2021/07/17 03:50:15;;;;;;;18.85;13.40;;;;;;;20.63;92.17;96581.36;127895;1093;23391;-91
2021/07/17 03:52:47;;;;;;;15.73;12.83;;;;;;;20.69;92.06;96584.58;127896;1093;23934;-91
2021/07/17 03:55:18;;;;;;;16.60;12.13;;;;;;;20.74;92.11;96582.44;127893;1093;24473;-90
2021/07/17 03:57:49;;;;;;;15.83;11.68;;;;;;;20.81;92.22;96581.05;127865;1092;22826;-89
2021/07/17 04:00:22;;;;;;;15.28;11.75;;;;;;;20.86;91.79;96584.30;127842;1092;24440;-91
2021/07/17 04:02:53;;;;;;;15.15;12.25;;;;;;;20.79;91.45;96588.70;127856;1093;22832;-91
2021/07/17 04:05:24;;;;;;;13.60;11.33;;;;;;;20.74;91.22;96598.61;127840;1093;24051;-90
2021/07/17 04:07:56;;;;;;;14.83;11.87;;;;;;;20.70;91.24;96586.17;127831;1092;22813;-90
2021/07/17 04:10:27;;;;;;;15.60;12.40;;;;;;;20.70;91.44;96595.04;127858;1092;24367;-96
2021/07/17 04:12:58;;;;;;;16.45;13.03;;;;;;;20.76;91.94;96595.56;127847;1093;22950;-90
2021/07/17 04:15:30;;;;;;;17.93;13.53;;;;;;;20.90;92.39;96592.47;127836;1092;22799;-94
2021/07/17 04:18:01;;;;;;;15.98;13.15;;;;;;;21.02;92.26;96593.19;127881;1092;26002;-90
2021/07/17 04:20:33;;;;;;;18.40;14.43;;;;;;;21.13;92.42;96584.59;127845;1093;30029;-96
2021/07/17 04:23:04;;;;;;;19.53;14.58;;;;;;;21.15;92.01;96582.33;127850;1092;26347;-91
2021/07/17 04:25:36;;;;;;;17.83;13.40;;;;;;;21.17;91.89;96588.94;127856;1093;24463;-93
2021/07/17 04:28:07;;;;;;;19.18;14.23;;;;;;;21.16;91.50;96592.77;127841;1092;23514;-90
2021/07/17 04:30:39;;;;;;;17.78;14.33;;;;;;;21.17;91.83;96588.16;127859;1093;22793;-91
2021/07/17 04:33:10;;;;;;;19.20;14.93;;;;;;;21.23;91.58;96594.84;127882;1093;26021;-90
2021/07/17 04:35:43;;;;;;;18.40;14.00;;;;;;;21.30;91.45;96597.77;127903;1093;26597;-93
2021/07/17 04:38:14;;;;;;;17.58;13.50;;;;;;;21.32;91.43;96595.50;127923;1092;24433;-90
2021/07/17 04:40:46;;;;;;;19.50;15.00;;;;;;;21.37;91.28;96599.84;127905;1093;29925;-91
2021/07/17 04:43:17;;;;;;;16.85;13.48;;;;;;;21.40;91.50;96588.38;127910;1093;22823;-91
2021/07/17 04:45:49;;;;;;;18.83;14.20;;;;;;;21.43;91.47;96584.98;127859;1093;26277;-91
2021/07/17 04:48:20;;;;;;;19.40;16.15;;;;;;;21.40;91.22;96586.47;127867;1093;26641;-90
2021/07/17 04:50:51;;;;;;;23.43;17.73;;;;;;;21.38;91.28;96582.52;127846;1093;23736;-91
2021/07/17 04:53:23;;;;;;;26.40;20.30;;;;;;;21.39;91.57;96587.56;127865;1093;22785;-91
2021/07/17 04:55:54;;;;;;;25.50;21.13;;;;;;;21.34;91.48;96585.92;127880;1093;22772;-90
2021/07/17 04:58:25;;;;;;;28.28;19.93;;;;;;;21.34;91.73;96569.74;127884;1092;24620;-92
2021/07/17 05:00:57;;;;;;;28.28;20.58;;;;;;;21.30;91.50;96576.97;127833;1092;24476;-91
2021/07/17 05:03:28;;;;;;;28.60;21.38;;;;;;;21.29;91.79;96570.02;127860;1093;22944;-91
2021/07/17 05:05:59;;;;;;;24.53;20.20;;;;;;;21.41;92.08;96573.77;127869;1093;22796;-96
2021/07/17 05:08:31;;;;;;;25.23;19.43;;;;;;;21.69;92.05;96577.13;127877;1093;24368;-96
2021/07/17 05:11:02;;;;;;;24.55;20.18;;;;;;;21.94;91.97;96583.06;127859;1092;23896;-94
2021/07/17 05:13:34;;;;;;;25.15;19.38;;;;;;;22.09;91.49;96576.87;127826;1093;22955;-91
2021/07/17 05:16:05;;;;;;;23.20;18.05;;;;;;;22.14;91.34;96576.61;127906;1093;24133;-95
2021/07/17 05:18:37;;;;;;;24.03;18.20;;;;;;;22.11;89.96;96579.24;127863;1093;23649;-91
2021/07/17 05:21:08;;;;;;;21.08;16.73;;;;;;;22.00;89.74;96581.67;127861;1093;23933;-93
2021/07/17 05:23:40;;;;;;;23.50;16.45;;;;;;;22.09;90.00;96584.19;127850;1093;23494;-92
2021/07/17 05:26:11;;;;;;;21.15;15.20;;;;;;;22.23;89.88;96579.09;127847;1093;24773;-90
2021/07/17 05:28:42;;;;;;;19.58;15.90;;;;;;;22.35;90.14;96581.66;127767;1093;23838;-93
2021/07/17 05:31:14;;;;;;;19.05;14.88;;;;;;;22.54;90.15;96566.61;127939;1093;22854;-92
2021/07/17 05:33:45;;;;;;;18.88;15.10;;;;;;;22.73;89.31;96574.69;127907;1093;22802;-94
2021/07/17 05:36:16;;;;;;;20.85;15.93;;;;;;;22.62;88.00;96579.09;127908;1093;22959;-93
2021/07/17 05:38:47;;;;;;;18.63;15.55;;;;;;;22.29;87.71;96574.98;127876;1092;26277;-91
2021/07/17 05:41:19;;;;;;;24.58;17.28;;;;;;;22.03;88.21;96572.08;127870;1093;24748;-88
2021/07/17 05:43:50;;;;;;;20.28;14.90;;;;;;;21.88;88.70;96573.69;127875;1093;23347;-90
2021/07/17 05:46:22;;;;;;;19.25;15.83;;;;;;;21.82;89.20;96570.48;127858;1093;23010;-89
2021/07/17 05:48:53;;;;;;;21.50;14.98;;;;;;;21.83;89.52;96569.35;127828;1093;22783;-89
2021/07/17 05:51:25;;;;;;;23.18;17.30;;;;;;;21.94;89.62;96572.27;127838;1093;22768;-93
2021/07/17 05:53:56;;;;;;;22.38;17.10;;;;;;;22.05;89.14;96572.50;127857;1093;22786;-91
2021/07/17 05:56:28;;;;;;;17.80;15.90;;;;;;;22.20;89.31;96569.78;127870;1093;23397;-95
2021/07/17 05:59:00;;;;;;;21.98;17.33;;;;;;;22.25;88.98;96573.36;127890;1093;22792;-91
2021/07/17 06:01:31;;;;;;;22.28;17.55;;;;;;;22.18;88.11;96571.27;127885;1093;22790;-93
2021/07/17 06:04:03;;;;;;;23.05;18.73;;;;;;;22.04;88.21;96573.64;127848;1093;23343;-96
2021/07/17 06:06:34;;;;;;;22.03;17.78;;;;;;;21.91;88.55;96572.98;127869;1093;24700;-92
2021/07/17 06:09:06;;;;;;;20.75;17.20;;;;;;;22.02;89.56;96573.22;127827;1092;22794;-90
2021/07/17 06:11:37;;;;;;;22.48;17.70;;;;;;;22.06;88.92;96572.17;127881;1093;24186;-91
2021/07/17 06:14:09;;;;;;;21.95;17.55;;;;;;;22.05;88.65;96562.52;127869;1093;24345;-93
2021/07/17 06:16:40;;;;;;;20.08;16.13;;;;;;;22.19;89.59;96562.03;127890;1093;26863;-90
2021/07/17 06:19:11;;;;;;;18.73;15.50;;;;;;;22.38;89.63;96559.36;127824;1093;22792;-89
2021/07/17 06:21:43;;;;;;;18.25;14.35;;;;;;;22.47;89.11;96557.20;127909;1093;22786;-93
2021/07/17 06:24:14;;;;;;;20.78;15.13;;;;;;;22.48;89.18;96564.17;127911;1093;22916;-92
2021/07/17 06:26:45;;;;;;;16.80;13.50;;;;;;;22.48;89.01;96564.17;127917;1093;23711;-91
2021/07/17 06:29:17;;;;;;;16.75;13.18;;;;;;;22.49;88.76;96565.73;127895;1093;29683;-94
2021/07/17 06:31:48;;;;;;;18.00;14.08;;;;;;;22.49;88.23;96573.05;127815;1093;30628;-88
2021/07/17 06:34:19;;;;;;;14.70;12.75;;;;;;;22.62;89.62;96566.37;127846;1093;24424;-90
2021/07/17 06:36:51;;;;;;;18.63;13.98;;;;;;;23.78;91.09;96567.98;127829;1093;24522;-91
2021/07/17 06:39:23;;;;;;;16.55;13.25;;;;;;;24.85;88.12;96573.63;127839;1093;26030;-91
2021/07/17 06:41:54;;;;;;;18.73;14.00;;;;;;;24.97;85.80;96574.53;127861;1093;23394;-93
2021/07/17 06:44:26;;;;;;;17.68;13.90;;;;;;;24.95;83.75;96585.75;127859;1093;28823;-93
2021/07/17 06:46:57;;;;;;;19.68;13.58;;;;;;;24.50;82.69;96582.16;127853;1092;30738;-93
2021/07/17 06:49:28;;;;;;;14.60;11.95;;;;;;;24.15;82.81;96581.67;127841;1093;24196;-90
2021/07/17 06:52:00;;;;;;;15.70;12.75;;;;;;;23.66;82.77;96588.72;127818;1093;23529;-93
2021/07/17 06:54:31;;;;;;;15.08;12.08;;;;;;;23.28;82.99;96591.54;127888;1092;24426;-89
2021/07/17 06:57:03;;;;;;;14.48;11.78;;;;;;;22.98;83.67;96600.30;127837;1092;26647;-91
2021/07/17 06:59:34;;;;;;;15.05;12.48;;;;;;;22.88;83.74;96594.69;127853;1093;22827;-89
2021/07/17 07:02:06;;;;;;;17.50;13.03;;;;;;;22.81;83.97;96598.02;127880;1093;26274;-91
2021/07/17 07:04:37;;;;;;;16.43;13.48;;;;;;;22.71;84.24;96598.59;127849;1093;22793;-92
2021/07/17 07:07:08;;;;;;;15.35;13.65;;;;;;;22.57;84.07;96592.91;127852;1093;22761;-90
2021/07/17 07:09:40;;;;;;;15.07;11.93;;;;;;;22.44;84.27;96603.06;127844;1093;22826;-94
2021/07/17 07:12:11;;;;;;;14.15;10.58;;;;;;;22.37;84.57;96609.09;127878;1093;26065;-91
2021/07/17 07:14:42;;;;;;;13.65;10.35;;;;;;;22.33;84.51;96600.14;127856;1093;22789;-90
2021/07/17 07:17:14;;;;;;;14.48;10.33;;;;;;;22.34;84.50;96604.41;127936;1093;23492;-89
2021/07/17 07:19:45;;;;;;;12.13;9.65;;;;;;;22.33;84.93;96600.14;127922;1093;22813;-93
2021/07/17 07:22:17;;;;;;;15.05;9.28;;;;;;;22.33;84.55;96600.14;127920;1093;24928;-93
2021/07/17 07:24:48;;;;;;;12.18;9.95;;;;;;;22.41;85.47;96593.76;127857;1093;22821;-91
2021/07/17 07:27:21;;;;;;;21.45;12.83;;;;;;;22.56;85.34;96597.53;127874;1093;22813;-89
2021/07/17 07:29:53;;;;;;;14.33;10.75;;;;;;;22.71;85.72;96593.97;127854;1093;23717;-89
2021/07/17 07:32:25;;;;;;;13.18;9.50;;;;;;;22.84;85.65;96597.33;127848;1093;22885;-92
2021/07/17 07:34:57;;;;;;;13.90;10.15;;;;;;;22.94;85.13;96593.23;127867;1093;22791;-93
2021/07/17 07:37:28;;;;;;;17.15;11.80;;;;;;;23.01;84.74;96602.27;127872;1093;22790;-90
2021/07/17 07:40:00;;;;;;;17.68;12.83;;;;;;;22.95;84.15;96597.53;127851;1092;22783;-92
2021/07/17 07:42:31;;;;;;;19.55;14.05;;;;;;;22.83;83.67;96605.80;127873;1093;22847;-90
2021/07/17 07:45:04;;;;;;;20.93;13.43;;;;;;;22.76;83.64;96600.99;127826;1093;22767;-91
2021/07/17 07:47:35;;;;;;;13.63;10.88;;;;;;;22.72;83.71;96600.16;127829;1093;24030;-91
2021/07/17 07:50:09;;;;;;;16.03;10.33;;;;;;;22.64;83.53;96601.92;127823;1093;24437;-91
2021/07/17 07:52:41;;;;;;;13.10;9.43;;;;;;;22.62;84.34;96617.71;127861;1093;26303;-92
2021/07/17 07:55:13;;;;;;;16.55;11.05;;;;;;;22.55;83.80;96616.80;127863;1093;22821;-90
2021/07/17 07:57:44;;;;;;;16.03;10.45;;;;;;;22.43;84.28;96615.02;127910;1093;22916;-90
2021/07/17 08:00:19;;;;;;;12.73;10.55;;;;;;;22.39;84.40;96614.95;127874;1092;23528;-93
2021/07/17 08:02:50;;;;;;;14.68;10.85;;;;;;;22.37;84.55;96619.11;127870;1093;22947;-90
2021/07/17 08:05:22;;;;;;;14.68;10.35;;;;;;;22.38;84.54;96618.78;127847;1093;26155;-90
2021/07/17 08:07:53;;;;;;;14.93;10.60;;;;;;;22.47;85.05;96619.34;127861;1093;24611;-91
2021/07/17 08:10:25;;;;;;;13.90;10.03;;;;;;;22.54;84.61;96631.45;127866;1093;27079;-93
2021/07/17 08:12:57;;;;;;;13.10;9.68;;;;;;;22.63;84.23;96615.79;127859;1092;26421;-89
2021/07/17 08:15:28;;;;;;;14.88;10.85;;;;;;;22.73;84.23;96617.93;127865;1093;25490;-90
2021/07/17 08:18:00;;;;;;;15.35;9.60;;;;;;;22.91;84.48;96623.70;127878;1093;26373;-95
2021/07/17 08:20:32;;;;;;;12.48;9.50;;;;;;;23.17;84.23;96614.91;127851;1093;38086;-91
2021/07/17 08:23:03;;;;;;;16.58;10.10;;;;;;;23.32;83.00;96622.13;127849;1093;22839;-89
2021/07/17 08:25:35;;;;;;;12.60;9.30;;;;;;;23.53;82.69;96622.50;127899;1093;23096;-92
2021/07/17 08:28:07;;;;;;;14.20;8.97;;;;;;;23.74;83.06;96615.88;127835;1093;24050;-90
2021/07/17 08:30:39;;;;;;;11.73;8.98;;;;;;;23.98;82.35;96616.27;127841;1093;24439;-94
2021/07/17 08:33:12;;;;;;;13.75;9.48;;;;;;;24.20;81.44;96622.75;127847;1093;22792;-94
2021/07/17 08:35:44;;;;;;;11.38;8.80;;;;;;;24.28;80.87;96624.42;127892;1093;22802;-90
2021/07/17 08:38:16;;;;;;;10.20;7.78;;;;;;;24.46;80.80;96623.90;127887;1093;24464;-91
2021/07/17 08:40:53;;;;;;;12.93;8.70;;;;;;;24.54;80.25;96625.56;127910;1093;26807;-91
2021/07/17 08:43:25;;;;;;;13.28;9.40;;;;;;;24.43;78.35;96620.00;127819;1093;24415;-92
2021/07/17 08:45:57;;;;;;;13.88;8.83;;;;;;;24.28;78.70;96619.00;127842;1091;24438;-92
2021/07/17 08:48:29;;;;;;;13.90;9.85;;;;;;;24.18;78.44;96616.92;127852;1093;23401;-90
2021/07/17 08:51:05;;;;;;;11.70;8.75;;;;;;;24.14;78.56;96626.16;127859;1093;26284;-90
2021/07/17 08:53:37;;;;;;;10.98;8.85;;;;;;;24.04;77.87;96630.27;127857;1093;26841;-92
2021/07/17 08:56:09;;;;;;;12.23;9.08;;;;;;;23.95;77.63;96625.13;127892;1093;22821;-90
2021/07/17 08:58:40;;;;;;;11.60;9.10;;;;;;;23.96;78.28;96628.62;127848;1092;22799;-90
2021/07/17 09:01:13;;;;;;;11.65;9.15;;;;;;;24.08;78.44;96631.13;127855;1093;22793;-91
2021/07/17 09:03:45;;;;;;;13.58;9.08;;;;;;;24.17;78.79;96622.71;127900;1093;24917;-92
2021/07/17 09:06:17;;;;;;;11.43;9.13;;;;;;;24.17;78.50;96634.33;127942;1093;24429;-91
2021/07/17 09:08:51;;;;;;;16.23;9.68;;;;;;;24.27;78.58;96622.86;127854;1093;24315;-88
2021/07/17 09:11:36;;;;;;;12.73;9.68;;;;;;;24.21;78.40;96628.95;127879;1092;24399;-90
2021/07/17 09:14:08;;;;;;;13.60;9.35;;;;;;;24.16;77.86;96627.34;127882;1092;24257;-93
2021/07/17 09:16:40;;;;;;;13.78;9.03;;;;;;;24.19;77.77;96615.77;127900;1093;23224;-89
2021/07/17 09:19:13;;;;;;;13.45;9.30;;;;;;;24.39;77.66;96626.53;127885;1093;22940;-93
2021/07/17 09:21:45;;;;;;;11.65;9.60;;;;;;;24.50;77.93;96630.17;127930;1093;23486;-91
2021/07/17 09:24:21;;;;;;;13.25;9.75;;;;;;;24.62;76.69;96629.91;127936;1093;22848;-90
2021/07/17 09:26:58;;;;;;;13.30;9.25;;;;;;;24.74;76.97;96624.25;127889;1092;26322;-90
2021/07/17 09:29:42;;;;;;;12.25;9.18;;;;;;;24.97;76.95;96623.34;127828;1092;25205;-94
2021/07/17 09:32:18;;;;;;;14.55;9.75;;;;;;;25.10;76.15;96625.46;127900;1093;22819;-91
2021/07/17 09:34:49;;;;;;;12.68;9.80;;;;;;;25.21;75.84;96617.44;127876;1093;26474;-89
2021/07/17 09:37:24;;;;;;;15.75;10.35;;;;;;;25.29;75.80;96619.05;127847;1093;25803;-90
2021/07/17 09:39:56;;;;;;;14.35;9.53;;;;;;;25.56;75.95;96627.05;127907;1092;22765;-90
2021/07/17 09:42:28;;;;;;;13.38;8.83;;;;;;;25.77;75.00;96627.26;127868;1092;23250;-92
2021/07/17 09:44:59;;;;;;;10.55;7.45;;;;;;;25.99;74.61;96618.09;127894;1093;23583;-94
2021/07/17 09:47:31;;;;;;;10.40;7.90;;;;;;;26.04;73.26;96617.75;127870;1093;24222;-96
2021/07/17 09:50:16;;;;;;;10.13;7.90;;;;;;;26.08;73.60;96616.98;127849;1093;24376;-90
2021/07/17 09:52:49;;;;;;;12.30;8.68;;;;;;;25.93;72.44;96616.89;127806;1093;24091;-90
2021/07/17 09:55:20;;;;;;;10.88;8.33;;;;;;;25.70;72.52;96613.61;127876;1093;22786;-89
2021/07/17 09:57:52;;;;;;;11.83;8.38;;;;;;;25.68;72.99;96621.33;127900;1093;22795;-91
2021/07/17 10:00:24;;;;;;;9.88;7.68;;;;;;;25.86;72.94;96616.83;127856;1093;22838;-91
2021/07/17 10:02:59;;;;;;;10.88;6.98;;;;;;;26.02;73.16;96619.27;127872;1092;22991;-93
2021/07/17 10:05:41;;;;;;;9.33;7.60;;;;;;;26.19;72.24;96620.56;127910;1093;22780;-90
2021/07/17 10:08:15;;;;;;;9.45;7.48;;;;;;;26.37;72.62;96613.30;127853;1093;23864;-91
2021/07/17 10:11:00;;;;;;;9.70;7.58;;;;;;;26.48;72.24;96607.92;127904;1093;24276;-90
2021/07/17 10:13:32;;;;;;;10.45;7.83;;;;;;;26.46;71.60;96613.71;127860;1093;22813;-92
2021/07/17 10:16:18;;;;;;;11.68;7.38;;;;;;;26.56;71.65;96602.11;127889;1091;22819;-92
2021/07/17 10:18:51;;;;;;;11.68;7.68;;;;;;;26.60;70.96;96604.84;127911;1092;22957;-90
2021/07/17 10:21:24;;;;;;;9.70;7.73;;;;;;;26.54;71.04;96601.72;127852;1093;23175;-89
2021/07/17 10:23:56;;;;;;;9.30;7.13;;;;;;;26.63;71.19;96609.53;127868;1093;26271;-90
2021/07/17 10:26:27;;;;;;;11.10;7.68;;;;;;;26.82;70.85;96586.67;127871;1093;22820;-92
2021/07/17 10:29:05;;;;;;;9.93;7.48;;;;;;;26.88;69.34;96594.05;127857;1093;22919;-88
2021/07/17 10:31:37;;;;;;;10.78;8.63;;;;;;;26.60;69.20;96586.61;127889;1093;24391;-89
2021/07/17 10:34:10;;;;;;;9.73;7.13;;;;;;;26.80;70.70;96591.72;127872;1093;27771;-89
2021/07/17 10:36:47;;;;;;;11.28;7.95;;;;;;;26.77;68.65;96592.48;127889;1093;22813;-91
2021/07/17 10:39:22;;;;;;;10.38;7.65;;;;;;;26.50;68.74;96592.00;127892;1093;23236;-88
2021/07/17 10:41:55;;;;;;;11.28;8.23;;;;;;;26.73;70.19;96595.17;127862;1093;22848;-91
2021/07/17 10:44:46;;;;;;;10.20;7.65;;;;;;;26.91;69.48;96598.75;127860;1093;24127;-90
2021/07/17 10:47:19;;;;;;;11.18;8.20;;;;;;;26.72;68.34;96595.56;127928;1093;22947;-90
2021/07/17 10:49:53;;;;;;;13.28;7.80;;;;;;;26.76;69.36;96591.71;127860;1092;24661;-89
2021/07/17 10:52:39;;;;;;;10.95;8.40;;;;;;;26.81;68.66;96594.05;127887;1092;24622;-90
2021/07/17 10:55:32;;;;;;;10.20;8.45;;;;;;;26.78;68.94;96583.16;127848;1093;37749;-90
2021/07/17 10:58:46;;;;;;;11.73;8.08;;;;;;;26.95;69.63;96579.70;127860;1091;22792;-90
2021/07/17 11:01:18;;;;;;;11.23;7.63;;;;;;;27.04;68.53;96574.70;127785;1093;23990;-91
2021/07/17 11:03:51;;;;;;;11.10;8.35;;;;;;;26.92;68.93;96577.77;127849;1093;25272;-89
2021/07/17 11:06:28;;;;;;;10.10;7.78;;;;;;;26.88;68.79;96580.45;127862;1093;26296;-90
2021/07/17 11:09:20;;;;;;;9.83;7.68;;;;;;;26.81;68.54;96574.23;127841;1093;23943;-91
2021/07/17 11:11:52;;;;;;;10.33;7.83;;;;;;;26.58;67.84;96574.53;127877;1093;22838;-90
2021/07/17 11:14:26;;;;;;;11.33;7.73;;;;;;;26.51;68.30;96577.24;127878;1093;23033;-89
2021/07/17 11:16:59;;;;;;;9.85;7.43;;;;;;;26.54;68.93;96574.53;127890;1093;25704;-91
2021/07/17 11:19:31;;;;;;;8.78;7.35;;;;;;;26.72;69.41;96569.14;127874;1093;24889;-90
2021/07/17 11:22:14;;;;;;;10.30;7.08;;;;;;;26.92;68.91;96572.31;127835;1093;23955;-93
2021/07/17 11:24:46;;;;;;;9.95;7.43;;;;;;;27.04;68.59;96574.70;127920;1092;22817;-90
2021/07/17 11:27:18;;;;;;;9.63;7.97;;;;;;;27.24;69.21;96575.11;127879;1093;47600;-91
2021/07/17 11:29:51;;;;;;;10.50;7.70;;;;;;;27.43;68.37;96568.50;127879;1093;23235;-89
2021/07/17 11:32:22;;;;;;;10.35;8.10;;;;;;;27.57;67.86;96579.39;127882;1092;22880;-89
2021/07/17 11:34:54;;;;;;;9.25;7.25;;;;;;;27.52;67.46;96582.52;127878;1093;23252;-89
2021/07/17 11:37:29;;;;;;;10.85;8.20;;;;;;;27.37;67.25;96583.68;127850;1093;23689;-90